sensor_id;sensor_type;location;lat;lon;timestamp;P1;durP1;ratioP1;P2;durP2;ratioP2
49310;SDS011;35177;45.900;5.946;2023-03-12T00:00:45;5.80;;;2.13;;
49310;SDS011;35177;45.900;5.946;2023-03-12T00:03:10;3.22;;;1.98;;
49310;SDS011;35177;45.900;5.946;2023-03-12T00:05:36;2.97;;;1.85;;
49310;SDS011;35177;45.900;5.946;2023-03-12T00:08:03;2.70;;;1.98;;
49310;SDS011;35177;45.900;5.946;2023-03-12T00:10:29;5.13;;;2.00;;
49310;SDS011;35177;45.900;5.946;2023-03-12T00:12:54;2.88;;;2.05;;
49310;SDS011;35177;45.900;5.946;2023-03-12T00:15:20;2.65;;;2.08;;
49310;SDS011;35177;45.900;5.946;2023-03-12T00:17:45;4.60;;;1.85;;
49310;SDS011;35177;45.900;5.946;2023-03-12T00:20:11;3.97;;;2.33;;
49310;SDS011;35177;45.900;5.946;2023-03-12T00:22:37;5.45;;;2.47;;
49310;SDS011;35177;45.900;5.946;2023-03-12T00:25:04;3.78;;;2.00;;
49310;SDS011;35177;45.900;5.946;2023-03-12T00:27:35;2.08;;;1.65;;
49310;SDS011;35177;45.900;5.946;2023-03-12T00:30:01;3.53;;;2.58;;
49310;SDS011;35177;45.900;5.946;2023-03-12T00:32:27;2.22;;;1.83;;
49310;SDS011;35177;45.900;5.946;2023-03-12T00:34:53;4.22;;;1.80;;
49310;SDS011;35177;45.900;5.946;2023-03-12T00:37:20;2.50;;;1.90;;
49310;SDS011;35177;45.900;5.946;2023-03-12T00:39:46;1.98;;;1.77;;
49310;SDS011;35177;45.900;5.946;2023-03-12T00:42:12;6.88;;;2.08;;
49310;SDS011;35177;45.900;5.946;2023-03-12T00:44:38;2.65;;;1.67;;
49310;SDS011;35177;45.900;5.946;2023-03-12T00:47:03;2.28;;;1.70;;
49310;SDS011;35177;45.900;5.946;2023-03-12T00:49:29;2.65;;;1.80;;
49310;SDS011;35177;45.900;5.946;2023-03-12T00:51:54;2.60;;;1.52;;
49310;SDS011;35177;45.900;5.946;2023-03-12T00:54:20;7.95;;;2.55;;
49310;SDS011;35177;45.900;5.946;2023-03-12T00:56:46;3.10;;;2.10;;
49310;SDS011;35177;45.900;5.946;2023-03-12T00:59:12;2.25;;;1.95;;
49310;SDS011;35177;45.900;5.946;2023-03-12T01:01:40;3.58;;;2.20;;
49310;SDS011;35177;45.900;5.946;2023-03-12T01:04:07;2.85;;;2.35;;
49310;SDS011;35177;45.900;5.946;2023-03-12T01:06:33;4.05;;;2.80;;
49310;SDS011;35177;45.900;5.946;2023-03-12T01:09:00;3.20;;;2.10;;
49310;SDS011;35177;45.900;5.946;2023-03-12T01:11:29;2.38;;;2.10;;
49310;SDS011;35177;45.900;5.946;2023-03-12T01:13:57;2.47;;;2.13;;
49310;SDS011;35177;45.900;5.946;2023-03-12T01:16:24;4.43;;;3.35;;
49310;SDS011;35177;45.900;5.946;2023-03-12T01:18:52;3.22;;;1.95;;
49310;SDS011;35177;45.900;5.946;2023-03-12T01:21:18;3.00;;;2.40;;
49310;SDS011;35177;45.900;5.946;2023-03-12T01:23:44;2.72;;;2.50;;
49310;SDS011;35177;45.900;5.946;2023-03-12T01:26:10;3.63;;;2.83;;
49310;SDS011;35177;45.900;5.946;2023-03-12T01:28:35;5.18;;;3.47;;
49310;SDS011;35177;45.900;5.946;2023-03-12T01:31:08;6.20;;;3.90;;
49310;SDS011;35177;45.900;5.946;2023-03-12T01:33:34;5.50;;;3.80;;
49310;SDS011;35177;45.900;5.946;2023-03-12T01:36:00;4.80;;;3.60;;
49310;SDS011;35177;45.900;5.946;2023-03-12T01:38:25;4.10;;;2.97;;
49310;SDS011;35177;45.900;5.946;2023-03-12T01:40:51;3.80;;;3.42;;
49310;SDS011;35177;45.900;5.946;2023-03-12T01:43:50;4.47;;;3.35;;
49310;SDS011;35177;45.900;5.946;2023-03-12T01:48:52;2.70;;;2.50;;
49310;SDS011;35177;45.900;5.946;2023-03-12T01:51:21;3.72;;;2.78;;
49310;SDS011;35177;45.900;5.946;2023-03-12T01:53:50;4.07;;;3.47;;
49310;SDS011;35177;45.900;5.946;2023-03-12T01:56:18;3.83;;;2.97;;
49310;SDS011;35177;45.900;5.946;2023-03-12T01:58:49;4.03;;;3.60;;
49310;SDS011;35177;45.900;5.946;2023-03-12T02:01:19;4.37;;;3.47;;
49310;SDS011;35177;45.900;5.946;2023-03-12T02:03:46;4.30;;;2.88;;
49310;SDS011;35177;45.900;5.946;2023-03-12T02:06:16;4.07;;;3.42;;
49310;SDS011;35177;45.900;5.946;2023-03-12T02:08:44;4.15;;;3.40;;
49310;SDS011;35177;45.900;5.946;2023-03-12T02:11:12;7.10;;;4.18;;
49310;SDS011;35177;45.900;5.946;2023-03-12T02:13:37;9.43;;;4.55;;
49310;SDS011;35177;45.900;5.946;2023-03-12T02:16:03;9.05;;;4.93;;
49310;SDS011;35177;45.900;5.946;2023-03-12T02:18:31;8.20;;;4.28;;
49310;SDS011;35177;45.900;5.946;2023-03-12T02:26:28;15.82;;;4.47;;
49310;SDS011;35177;45.900;5.946;2023-03-12T02:28:55;8.25;;;4.50;;
49310;SDS011;35177;45.900;5.946;2023-03-12T02:31:24;6.35;;;4.57;;
49310;SDS011;35177;45.900;5.946;2023-03-12T02:33:54;7.00;;;4.47;;
49310;SDS011;35177;45.900;5.946;2023-03-12T02:36:20;6.35;;;4.47;;
49310;SDS011;35177;45.900;5.946;2023-03-12T02:38:47;5.38;;;4.40;;
49310;SDS011;35177;45.900;5.946;2023-03-12T02:41:21;5.82;;;4.40;;
49310;SDS011;35177;45.900;5.946;2023-03-12T02:46:37;5.72;;;3.97;;
49310;SDS011;35177;45.900;5.946;2023-03-12T02:49:05;5.15;;;4.55;;
49310;SDS011;35177;45.900;5.946;2023-03-12T02:51:32;8.27;;;5.03;;
49310;SDS011;35177;45.900;5.946;2023-03-12T02:53:58;6.97;;;5.20;;
49310;SDS011;35177;45.900;5.946;2023-03-12T02:56:25;6.80;;;5.38;;
49310;SDS011;35177;45.900;5.946;2023-03-12T02:58:51;6.60;;;5.32;;
49310;SDS011;35177;45.900;5.946;2023-03-12T03:01:17;6.47;;;4.97;;
49310;SDS011;35177;45.900;5.946;2023-03-12T03:03:44;7.95;;;5.70;;
49310;SDS011;35177;45.900;5.946;2023-03-12T03:06:10;13.10;;;7.50;;
49310;SDS011;35177;45.900;5.946;2023-03-12T03:08:36;11.50;;;7.60;;
49310;SDS011;35177;45.900;5.946;2023-03-12T03:11:01;14.43;;;7.78;;
49310;SDS011;35177;45.900;5.946;2023-03-12T03:13:30;12.48;;;8.18;;
49310;SDS011;35177;45.900;5.946;2023-03-12T03:15:57;11.90;;;7.40;;
49310;SDS011;35177;45.900;5.946;2023-03-12T03:18:24;7.50;;;4.93;;
49310;SDS011;35177;45.900;5.946;2023-03-12T03:20:54;27.10;;;5.28;;
49310;SDS011;35177;45.900;5.946;2023-03-12T03:23:20;41.22;;;4.88;;
49310;SDS011;35177;45.900;5.946;2023-03-12T03:25:46;5.07;;;4.00;;
49310;SDS011;35177;45.900;5.946;2023-03-12T03:28:11;5.10;;;3.42;;
49310;SDS011;35177;45.900;5.946;2023-03-12T03:30:36;7.60;;;4.70;;
49310;SDS011;35177;45.900;5.946;2023-03-12T03:33:02;6.72;;;4.40;;
49310;SDS011;35177;45.900;5.946;2023-03-12T03:35:28;6.72;;;4.45;;
49310;SDS011;35177;45.900;5.946;2023-03-12T03:37:54;9.60;;;5.53;;
49310;SDS011;35177;45.900;5.946;2023-03-12T03:40:19;6.75;;;5.07;;
49310;SDS011;35177;45.900;5.946;2023-03-12T03:42:45;7.57;;;4.82;;
49310;SDS011;35177;45.900;5.946;2023-03-12T03:45:10;8.75;;;4.90;;
49310;SDS011;35177;45.900;5.946;2023-03-12T03:47:36;6.28;;;4.68;;
49310;SDS011;35177;45.900;5.946;2023-03-12T03:50:02;7.50;;;5.10;;
49310;SDS011;35177;45.900;5.946;2023-03-12T03:52:28;7.97;;;5.10;;
49310;SDS011;35177;45.900;5.946;2023-03-12T03:54:55;8.70;;;4.63;;
49310;SDS011;35177;45.900;5.946;2023-03-12T03:57:21;7.45;;;4.70;;
49310;SDS011;35177;45.900;5.946;2023-03-12T03:59:46;5.60;;;4.32;;
49310;SDS011;35177;45.900;5.946;2023-03-12T04:02:12;7.50;;;5.40;;
49310;SDS011;35177;45.900;5.946;2023-03-12T04:04:37;8.82;;;5.07;;
49310;SDS011;35177;45.900;5.946;2023-03-12T04:07:03;11.95;;;7.30;;
49310;SDS011;35177;45.900;5.946;2023-03-12T04:09:28;12.40;;;6.68;;
49310;SDS011;35177;45.900;5.946;2023-03-12T04:11:54;8.40;;;5.88;;
49310;SDS011;35177;45.900;5.946;2023-03-12T04:14:20;7.45;;;5.22;;
49310;SDS011;35177;45.900;5.946;2023-03-12T04:16:45;6.78;;;4.97;;
49310;SDS011;35177;45.900;5.946;2023-03-12T04:19:11;6.25;;;4.90;;
49310;SDS011;35177;45.900;5.946;2023-03-12T04:21:36;8.30;;;5.97;;
49310;SDS011;35177;45.900;5.946;2023-03-12T04:24:03;8.35;;;5.25;;
49310;SDS011;35177;45.900;5.946;2023-03-12T04:26:30;7.75;;;5.72;;
49310;SDS011;35177;45.900;5.946;2023-03-12T04:28:55;7.47;;;6.28;;
49310;SDS011;35177;45.900;5.946;2023-03-12T04:31:21;8.48;;;6.53;;
49310;SDS011;35177;45.900;5.946;2023-03-12T04:33:46;11.82;;;6.75;;
49310;SDS011;35177;45.900;5.946;2023-03-12T04:36:12;7.82;;;6.32;;
49310;SDS011;35177;45.900;5.946;2023-03-12T04:38:38;10.63;;;8.32;;
49310;SDS011;35177;45.900;5.946;2023-03-12T04:41:08;10.45;;;7.38;;
49310;SDS011;35177;45.900;5.946;2023-03-12T04:43:36;8.85;;;6.57;;
49310;SDS011;35177;45.900;5.946;2023-03-12T04:46:02;10.45;;;8.07;;
49310;SDS011;35177;45.900;5.946;2023-03-12T04:48:28;13.65;;;9.07;;
49310;SDS011;35177;45.900;5.946;2023-03-12T04:50:54;12.43;;;8.82;;
49310;SDS011;35177;45.900;5.946;2023-03-12T04:53:19;12.10;;;8.88;;
49310;SDS011;35177;45.900;5.946;2023-03-12T04:55:45;10.20;;;7.65;;
49310;SDS011;35177;45.900;5.946;2023-03-12T04:58:11;11.95;;;7.60;;
49310;SDS011;35177;45.900;5.946;2023-03-12T05:00:37;10.45;;;7.55;;
49310;SDS011;35177;45.900;5.946;2023-03-12T05:03:03;11.25;;;7.05;;
49310;SDS011;35177;45.900;5.946;2023-03-12T05:05:29;11.73;;;8.20;;
49310;SDS011;35177;45.900;5.946;2023-03-12T05:07:54;9.55;;;7.22;;
49310;SDS011;35177;45.900;5.946;2023-03-12T05:10:20;12.43;;;8.18;;
49310;SDS011;35177;45.900;5.946;2023-03-12T05:12:45;14.75;;;10.02;;
49310;SDS011;35177;45.900;5.946;2023-03-12T05:15:11;9.60;;;6.63;;
49310;SDS011;35177;45.900;5.946;2023-03-12T05:17:36;8.98;;;5.93;;
49310;SDS011;35177;45.900;5.946;2023-03-12T05:20:02;9.77;;;5.88;;
49310;SDS011;35177;45.900;5.946;2023-03-12T05:22:30;12.20;;;5.13;;
49310;SDS011;35177;45.900;5.946;2023-03-12T05:24:55;8.13;;;5.20;;
49310;SDS011;35177;45.900;5.946;2023-03-12T05:27:21;7.72;;;5.65;;
49310;SDS011;35177;45.900;5.946;2023-03-12T05:29:48;8.38;;;5.25;;
49310;SDS011;35177;45.900;5.946;2023-03-12T05:32:13;7.38;;;5.18;;
49310;SDS011;35177;45.900;5.946;2023-03-12T05:34:39;6.68;;;5.25;;
49310;SDS011;35177;45.900;5.946;2023-03-12T05:37:04;7.45;;;5.30;;
49310;SDS011;35177;45.900;5.946;2023-03-12T05:39:30;11.05;;;5.38;;
49310;SDS011;35177;45.900;5.946;2023-03-12T05:41:55;5.53;;;4.55;;
49310;SDS011;35177;45.900;5.946;2023-03-12T05:44:24;7.55;;;4.63;;
49310;SDS011;35177;45.900;5.946;2023-03-12T05:46:50;7.53;;;4.93;;
49310;SDS011;35177;45.900;5.946;2023-03-12T05:49:16;5.07;;;3.90;;
49310;SDS011;35177;45.900;5.946;2023-03-12T05:51:43;5.10;;;3.90;;
49310;SDS011;35177;45.900;5.946;2023-03-12T05:54:09;4.25;;;3.17;;
49310;SDS011;35177;45.900;5.946;2023-03-12T05:56:35;4.13;;;2.90;;
49310;SDS011;35177;45.900;5.946;2023-03-12T05:59:01;3.92;;;3.20;;
49310;SDS011;35177;45.900;5.946;2023-03-12T06:01:28;4.85;;;3.42;;
49310;SDS011;35177;45.900;5.946;2023-03-12T06:03:54;3.92;;;3.20;;
49310;SDS011;35177;45.900;5.946;2023-03-12T06:06:20;5.05;;;3.55;;
49310;SDS011;35177;45.900;5.946;2023-03-12T06:08:45;5.32;;;4.00;;
49310;SDS011;35177;45.900;5.946;2023-03-12T06:11:11;4.00;;;3.35;;
49310;SDS011;35177;45.900;5.946;2023-03-12T06:13:38;4.72;;;4.28;;
49310;SDS011;35177;45.900;5.946;2023-03-12T06:16:04;5.28;;;3.78;;
49310;SDS011;35177;45.900;5.946;2023-03-12T06:18:32;5.22;;;4.15;;
49310;SDS011;35177;45.900;5.946;2023-03-12T06:21:09;4.78;;;4.03;;
49310;SDS011;35177;45.900;5.946;2023-03-12T06:23:44;6.55;;;4.72;;
49310;SDS011;35177;45.900;5.946;2023-03-12T06:26:11;4.60;;;4.03;;
49310;SDS011;35177;45.900;5.946;2023-03-12T06:28:37;5.68;;;4.85;;
49310;SDS011;35177;45.900;5.946;2023-03-12T06:31:03;6.43;;;4.80;;
49310;SDS011;35177;45.900;5.946;2023-03-12T06:33:30;5.82;;;4.60;;
49310;SDS011;35177;45.900;5.946;2023-03-12T06:35:57;6.07;;;4.43;;
49310;SDS011;35177;45.900;5.946;2023-03-12T06:38:24;4.57;;;3.63;;
49310;SDS011;35177;45.900;5.946;2023-03-12T06:41:00;5.18;;;3.65;;
49310;SDS011;35177;45.900;5.946;2023-03-12T06:43:28;5.80;;;3.63;;
49310;SDS011;35177;45.900;5.946;2023-03-12T06:45:55;3.45;;;3.15;;
49310;SDS011;35177;45.900;5.946;2023-03-12T06:48:22;4.70;;;3.00;;
49310;SDS011;35177;45.900;5.946;2023-03-12T06:50:48;3.15;;;2.47;;
49310;SDS011;35177;45.900;5.946;2023-03-12T06:53:14;2.83;;;2.60;;
49310;SDS011;35177;45.900;5.946;2023-03-12T06:55:40;3.03;;;2.72;;
49310;SDS011;35177;45.900;5.946;2023-03-12T06:58:07;3.15;;;2.60;;
49310;SDS011;35177;45.900;5.946;2023-03-12T07:00:33;2.60;;;2.40;;
49310;SDS011;35177;45.900;5.946;2023-03-12T07:02:59;3.10;;;2.83;;
49310;SDS011;35177;45.900;5.946;2023-03-12T07:05:25;2.80;;;2.50;;
49310;SDS011;35177;45.900;5.946;2023-03-12T07:07:51;2.80;;;2.50;;
49310;SDS011;35177;45.900;5.946;2023-03-12T07:10:17;3.00;;;2.53;;
49310;SDS011;35177;45.900;5.946;2023-03-12T07:12:43;5.18;;;3.70;;
49310;SDS011;35177;45.900;5.946;2023-03-12T07:15:10;4.47;;;3.47;;
49310;SDS011;35177;45.900;5.946;2023-03-12T07:17:36;5.57;;;4.28;;
49310;SDS011;35177;45.900;5.946;2023-03-12T07:20:02;3.78;;;3.40;;
49310;SDS011;35177;45.900;5.946;2023-03-12T07:22:28;3.92;;;3.42;;
49310;SDS011;35177;45.900;5.946;2023-03-12T07:24:53;7.50;;;6.70;;
49310;SDS011;35177;45.900;5.946;2023-03-12T07:27:19;3.90;;;3.22;;
49310;SDS011;35177;45.900;5.946;2023-03-12T07:29:44;4.93;;;3.50;;
49310;SDS011;35177;45.900;5.946;2023-03-12T07:32:10;2.42;;;1.98;;
49310;SDS011;35177;45.900;5.946;2023-03-12T07:34:36;3.03;;;1.80;;
49310;SDS011;35177;45.900;5.946;2023-03-12T07:37:01;1.50;;;1.40;;
49310;SDS011;35177;45.900;5.946;2023-03-12T07:39:27;1.52;;;1.40;;
49310;SDS011;35177;45.900;5.946;2023-03-12T07:41:53;1.65;;;1.25;;
49310;SDS011;35177;45.900;5.946;2023-03-12T07:44:18;1.98;;;1.08;;
49310;SDS011;35177;45.900;5.946;2023-03-12T07:46:44;1.63;;;1.00;;
49310;SDS011;35177;45.900;5.946;2023-03-12T07:49:09;1.83;;;1.10;;
49310;SDS011;35177;45.900;5.946;2023-03-12T07:51:35;3.65;;;1.27;;
49310;SDS011;35177;45.900;5.946;2023-03-12T07:54:00;1.17;;;0.95;;
49310;SDS011;35177;45.900;5.946;2023-03-12T07:56:26;1.80;;;1.00;;
49310;SDS011;35177;45.900;5.946;2023-03-12T07:58:51;2.33;;;1.25;;
49310;SDS011;35177;45.900;5.946;2023-03-12T08:01:17;0.80;;;0.80;;
49310;SDS011;35177;45.900;5.946;2023-03-12T08:03:42;0.80;;;0.80;;
49310;SDS011;35177;45.900;5.946;2023-03-12T08:06:08;2.38;;;1.20;;
49310;SDS011;35177;45.900;5.946;2023-03-12T08:08:34;2.45;;;1.63;;
49310;SDS011;35177;45.900;5.946;2023-03-12T08:11:02;2.58;;;1.35;;
49310;SDS011;35177;45.900;5.946;2023-03-12T08:13:29;1.73;;;0.80;;
49310;SDS011;35177;45.900;5.946;2023-03-12T08:15:55;2.00;;;1.10;;
49310;SDS011;35177;45.900;5.946;2023-03-12T08:18:21;4.50;;;2.83;;
49310;SDS011;35177;45.900;5.946;2023-03-12T08:20:51;2.35;;;1.50;;
49310;SDS011;35177;45.900;5.946;2023-03-12T08:23:17;2.55;;;2.17;;
49310;SDS011;35177;45.900;5.946;2023-03-12T08:25:44;2.70;;;2.42;;
49310;SDS011;35177;45.900;5.946;2023-03-12T08:28:11;2.22;;;1.75;;
49310;SDS011;35177;45.900;5.946;2023-03-12T08:30:36;4.63;;;2.10;;
49310;SDS011;35177;45.900;5.946;2023-03-12T08:33:02;2.45;;;1.90;;
49310;SDS011;35177;45.900;5.946;2023-03-12T08:35:28;3.40;;;2.60;;
49310;SDS011;35177;45.900;5.946;2023-03-12T08:37:53;4.35;;;2.15;;
49310;SDS011;35177;45.900;5.946;2023-03-12T08:40:21;4.65;;;2.30;;
49310;SDS011;35177;45.900;5.946;2023-03-12T08:42:47;3.90;;;2.00;;
49310;SDS011;35177;45.900;5.946;2023-03-12T08:45:13;3.33;;;2.47;;
49310;SDS011;35177;45.900;5.946;2023-03-12T08:47:40;2.65;;;1.90;;
49310;SDS011;35177;45.900;5.946;2023-03-12T08:50:07;3.40;;;1.42;;
49310;SDS011;35177;45.900;5.946;2023-03-12T08:52:33;4.18;;;1.65;;
49310;SDS011;35177;45.900;5.946;2023-03-12T08:54:58;3.72;;;1.30;;
49310;SDS011;35177;45.900;5.946;2023-03-12T08:57:24;3.17;;;1.30;;
49310;SDS011;35177;45.900;5.946;2023-03-12T08:59:49;1.65;;;1.10;;
49310;SDS011;35177;45.900;5.946;2023-03-12T09:02:15;5.05;;;1.40;;
49310;SDS011;35177;45.900;5.946;2023-03-12T09:04:40;3.05;;;1.50;;
49310;SDS011;35177;45.900;5.946;2023-03-12T09:07:06;4.85;;;2.05;;
49310;SDS011;35177;45.900;5.946;2023-03-12T09:09:31;4.10;;;1.50;;
49310;SDS011;35177;45.900;5.946;2023-03-12T09:11:57;3.35;;;1.40;;
49310;SDS011;35177;45.900;5.946;2023-03-12T09:14:22;3.95;;;1.63;;
49310;SDS011;35177;45.900;5.946;2023-03-12T09:16:48;3.67;;;2.15;;
49310;SDS011;35177;45.900;5.946;2023-03-12T09:19:14;2.75;;;1.42;;
49310;SDS011;35177;45.900;5.946;2023-03-12T09:21:40;6.28;;;2.78;;
49310;SDS011;35177;45.900;5.946;2023-03-12T09:24:06;7.15;;;2.13;;
49310;SDS011;35177;45.900;5.946;2023-03-12T09:26:31;3.75;;;1.80;;
49310;SDS011;35177;45.900;5.946;2023-03-12T09:28:57;4.68;;;1.50;;
49310;SDS011;35177;45.900;5.946;2023-03-12T09:31:23;2.85;;;0.88;;
49310;SDS011;35177;45.900;5.946;2023-03-12T09:33:50;2.80;;;1.17;;
49310;SDS011;35177;45.900;5.946;2023-03-12T09:36:16;3.70;;;1.05;;
49310;SDS011;35177;45.900;5.946;2023-03-12T09:38:41;11.30;;;2.10;;
49310;SDS011;35177;45.900;5.946;2023-03-12T09:41:13;3.10;;;1.45;;
49310;SDS011;35177;45.900;5.946;2023-03-12T09:44:03;3.88;;;1.00;;
49310;SDS011;35177;45.900;5.946;2023-03-12T09:46:34;3.97;;;1.15;;
49310;SDS011;35177;45.900;5.946;2023-03-12T09:49:12;5.50;;;1.10;;
49310;SDS011;35177;45.900;5.946;2023-03-12T09:51:56;2.83;;;0.88;;
49310;SDS011;35177;45.900;5.946;2023-03-12T09:54:40;3.60;;;1.13;;
49310;SDS011;35177;45.900;5.946;2023-03-12T09:57:15;2.58;;;1.00;;
49310;SDS011;35177;45.900;5.946;2023-03-12T09:59:49;2.10;;;0.77;;
49310;SDS011;35177;45.900;5.946;2023-03-12T10:02:41;4.72;;;1.13;;
49310;SDS011;35177;45.900;5.946;2023-03-12T10:07:49;3.40;;;0.90;;
49310;SDS011;35177;45.900;5.946;2023-03-12T10:10:34;2.58;;;0.93;;
49310;SDS011;35177;45.900;5.946;2023-03-12T10:13:16;5.68;;;1.15;;
49310;SDS011;35177;45.900;5.946;2023-03-12T10:15:55;2.78;;;0.80;;
49310;SDS011;35177;45.900;5.946;2023-03-12T10:26:44;1.85;;;0.90;;
49310;SDS011;35177;45.900;5.946;2023-03-12T10:29:16;6.15;;;1.10;;
49310;SDS011;35177;45.900;5.946;2023-03-12T10:31:51;4.47;;;1.35;;
49310;SDS011;35177;45.900;5.946;2023-03-12T10:34:26;1.92;;;0.88;;
49310;SDS011;35177;45.900;5.946;2023-03-12T10:37:02;3.75;;;0.88;;
49310;SDS011;35177;45.900;5.946;2023-03-12T10:39:36;3.55;;;1.13;;
49310;SDS011;35177;45.900;5.946;2023-03-12T10:42:04;4.93;;;2.90;;
49310;SDS011;35177;45.900;5.946;2023-03-12T10:44:39;5.07;;;1.45;;
49310;SDS011;35177;45.900;5.946;2023-03-12T10:47:06;3.50;;;1.20;;
49310;SDS011;35177;45.900;5.946;2023-03-12T10:49:42;1.27;;;0.80;;
49310;SDS011;35177;45.900;5.946;2023-03-12T10:52:14;2.13;;;0.80;;
49310;SDS011;35177;45.900;5.946;2023-03-12T10:54:41;2.83;;;0.70;;
49310;SDS011;35177;45.900;5.946;2023-03-12T10:57:09;2.08;;;0.50;;
49310;SDS011;35177;45.900;5.946;2023-03-12T10:59:36;1.58;;;0.50;;
49310;SDS011;35177;45.900;5.946;2023-03-12T11:04:51;1.48;;;0.73;;
49310;SDS011;35177;45.900;5.946;2023-03-12T11:07:22;1.92;;;0.60;;
49310;SDS011;35177;45.900;5.946;2023-03-12T11:12:33;1.30;;;0.60;;
49310;SDS011;35177;45.900;5.946;2023-03-12T11:15:36;2.10;;;0.60;;
49310;SDS011;35177;45.900;5.946;2023-03-12T11:26:28;3.60;;;0.70;;
49310;SDS011;35177;45.900;5.946;2023-03-12T11:29:00;3.78;;;1.00;;
49310;SDS011;35177;45.900;5.946;2023-03-12T11:34:07;1.48;;;0.70;;
49310;SDS011;35177;45.900;5.946;2023-03-12T11:50:09;2.55;;;1.08;;
49310;SDS011;35177;45.900;5.946;2023-03-12T11:55:58;2.88;;;0.88;;
49310;SDS011;35177;45.900;5.946;2023-03-12T11:58:44;1.50;;;0.70;;
49310;SDS011;35177;45.900;5.946;2023-03-12T12:19:24;4.47;;;0.70;;
49310;SDS011;35177;45.900;5.946;2023-03-12T12:27:26;1.33;;;0.90;;
49310;SDS011;35177;45.900;5.946;2023-03-12T12:30:01;1.58;;;0.55;;
49310;SDS011;35177;45.900;5.946;2023-03-12T12:35:26;2.25;;;0.80;;
49310;SDS011;35177;45.900;5.946;2023-03-12T12:40:40;1.27;;;0.68;;
49310;SDS011;35177;45.900;5.946;2023-03-12T12:43:15;1.38;;;0.60;;
49310;SDS011;35177;45.900;5.946;2023-03-12T12:45:58;2.08;;;0.68;;
49310;SDS011;35177;45.900;5.946;2023-03-12T12:48:31;2.85;;;1.02;;
49310;SDS011;35177;45.900;5.946;2023-03-12T12:51:01;1.88;;;0.60;;
49310;SDS011;35177;45.900;5.946;2023-03-12T12:56:24;2.20;;;0.60;;
49310;SDS011;35177;45.900;5.946;2023-03-12T13:02:02;1.92;;;0.65;;
49310;SDS011;35177;45.900;5.946;2023-03-12T13:04:37;3.17;;;0.50;;
49310;SDS011;35177;45.900;5.946;2023-03-12T13:09:45;3.92;;;0.77;;
49310;SDS011;35177;45.900;5.946;2023-03-12T13:20:30;3.33;;;0.80;;
49310;SDS011;35177;45.900;5.946;2023-03-12T13:26:14;2.58;;;0.80;;
49310;SDS011;35177;45.900;5.946;2023-03-12T13:33:46;2.53;;;0.73;;
49310;SDS011;35177;45.900;5.946;2023-03-12T13:41:46;2.50;;;0.75;;
49310;SDS011;35177;45.900;5.946;2023-03-12T13:50:12;1.63;;;0.90;;
49310;SDS011;35177;45.900;5.946;2023-03-12T13:52:24;1.48;;;0.60;;
49310;SDS011;35177;45.900;5.946;2023-03-12T13:54:56;1.60;;;0.70;;
49310;SDS011;35177;45.900;5.946;2023-03-12T13:57:35;1.15;;;0.65;;
49310;SDS011;35177;45.900;5.946;2023-03-12T14:03:17;2.05;;;0.60;;
49310;SDS011;35177;45.900;5.946;2023-03-12T14:13:32;4.30;;;0.60;;
49310;SDS011;35177;45.900;5.946;2023-03-12T14:18:49;1.05;;;0.60;;
49310;SDS011;35177;45.900;5.946;2023-03-12T14:21:16;0.98;;;0.50;;
49310;SDS011;35177;45.900;5.946;2023-03-12T14:23:55;1.92;;;0.65;;
49310;SDS011;35177;45.900;5.946;2023-03-12T14:26:23;2.38;;;0.60;;
49310;SDS011;35177;45.900;5.946;2023-03-12T14:29:37;1.10;;;0.50;;
49310;SDS011;35177;45.900;5.946;2023-03-12T14:31:43;1.17;;;0.45;;
49310;SDS011;35177;45.900;5.946;2023-03-12T14:34:16;2.72;;;0.80;;
49310;SDS011;35177;45.900;5.946;2023-03-12T14:36:46;0.98;;;0.55;;
49310;SDS011;35177;45.900;5.946;2023-03-12T14:42:19;2.13;;;0.75;;
49310;SDS011;35177;45.900;5.946;2023-03-12T14:44:56;0.95;;;0.60;;
49310;SDS011;35177;45.900;5.946;2023-03-12T14:47:47;1.63;;;0.75;;
49310;SDS011;35177;45.900;5.946;2023-03-12T14:50:26;2.00;;;0.75;;
49310;SDS011;35177;45.900;5.946;2023-03-12T14:52:54;1.83;;;0.60;;
49310;SDS011;35177;45.900;5.946;2023-03-12T14:55:22;2.30;;;0.80;;
49310;SDS011;35177;45.900;5.946;2023-03-12T14:58:42;2.33;;;0.90;;
49310;SDS011;35177;45.900;5.946;2023-03-12T15:00:41;2.50;;;0.60;;
49310;SDS011;35177;45.900;5.946;2023-03-12T15:03:13;1.42;;;0.80;;
49310;SDS011;35177;45.900;5.946;2023-03-12T15:05:46;1.58;;;0.65;;
49310;SDS011;35177;45.900;5.946;2023-03-12T15:08:13;2.50;;;0.90;;
49310;SDS011;35177;45.900;5.946;2023-03-12T15:10:39;0.57;;;0.40;;
49310;SDS011;35177;45.900;5.946;2023-03-12T15:13:11;2.38;;;0.77;;
49310;SDS011;35177;45.900;5.946;2023-03-12T15:15:41;3.20;;;0.70;;
49310;SDS011;35177;45.900;5.946;2023-03-12T15:18:28;2.50;;;0.77;;
49310;SDS011;35177;45.900;5.946;2023-03-12T15:20:57;2.08;;;0.70;;
49310;SDS011;35177;45.900;5.946;2023-03-12T15:23:27;1.98;;;0.68;;
49310;SDS011;35177;45.900;5.946;2023-03-12T15:26:07;2.13;;;0.73;;
49310;SDS011;35177;45.900;5.946;2023-03-12T15:28:33;2.08;;;0.65;;
49310;SDS011;35177;45.900;5.946;2023-03-12T15:31:13;11.60;;;5.65;;
49310;SDS011;35177;45.900;5.946;2023-03-12T15:33:40;3.40;;;1.55;;
49310;SDS011;35177;45.900;5.946;2023-03-12T15:38:42;1.90;;;0.82;;
49310;SDS011;35177;45.900;5.946;2023-03-12T15:41:16;2.78;;;0.77;;
49310;SDS011;35177;45.900;5.946;2023-03-12T15:43:50;3.63;;;1.00;;
49310;SDS011;35177;45.900;5.946;2023-03-12T15:46:18;3.03;;;0.60;;
49310;SDS011;35177;45.900;5.946;2023-03-12T15:48:46;2.05;;;1.00;;
49310;SDS011;35177;45.900;5.946;2023-03-12T15:51:28;5.65;;;1.00;;
49310;SDS011;35177;45.900;5.946;2023-03-12T15:53:59;2.63;;;1.27;;
49310;SDS011;35177;45.900;5.946;2023-03-12T15:56:30;1.65;;;0.77;;
49310;SDS011;35177;45.900;5.946;2023-03-12T16:01:55;2.67;;;0.70;;
49310;SDS011;35177;45.900;5.946;2023-03-12T16:04:22;3.63;;;0.73;;
49310;SDS011;35177;45.900;5.946;2023-03-12T16:06:48;1.80;;;0.70;;
49310;SDS011;35177;45.900;5.946;2023-03-12T16:09:19;1.00;;;0.50;;
49310;SDS011;35177;45.900;5.946;2023-03-12T16:11:48;3.22;;;1.00;;
49310;SDS011;35177;45.900;5.946;2023-03-12T16:14:16;2.60;;;1.20;;
49310;SDS011;35177;45.900;5.946;2023-03-12T16:16:45;2.83;;;0.80;;
49310;SDS011;35177;45.900;5.946;2023-03-12T16:19:11;2.88;;;0.80;;
49310;SDS011;35177;45.900;5.946;2023-03-12T16:21:41;3.00;;;0.90;;
49310;SDS011;35177;45.900;5.946;2023-03-12T16:24:07;1.70;;;0.80;;
49310;SDS011;35177;45.900;5.946;2023-03-12T16:26:33;2.58;;;0.63;;
49310;SDS011;35177;45.900;5.946;2023-03-12T16:29:01;4.28;;;1.20;;
49310;SDS011;35177;45.900;5.946;2023-03-12T16:31:27;4.70;;;0.90;;
49310;SDS011;35177;45.900;5.946;2023-03-12T16:33:53;2.38;;;0.80;;
49310;SDS011;35177;45.900;5.946;2023-03-12T16:36:18;1.35;;;0.80;;
49310;SDS011;35177;45.900;5.946;2023-03-12T16:38:44;2.60;;;0.93;;
49310;SDS011;35177;45.900;5.946;2023-03-12T16:41:11;2.10;;;0.75;;
49310;SDS011;35177;45.900;5.946;2023-03-12T16:43:38;2.05;;;0.82;;
49310;SDS011;35177;45.900;5.946;2023-03-12T16:46:06;2.60;;;0.93;;
49310;SDS011;35177;45.900;5.946;2023-03-12T16:48:33;3.67;;;0.93;;
49310;SDS011;35177;45.900;5.946;2023-03-12T16:50:58;1.83;;;0.70;;
49310;SDS011;35177;45.900;5.946;2023-03-12T16:53:24;3.15;;;0.90;;
49310;SDS011;35177;45.900;5.946;2023-03-12T16:55:51;3.67;;;0.90;;
49310;SDS011;35177;45.900;5.946;2023-03-12T16:58:17;1.77;;;0.98;;
49310;SDS011;35177;45.900;5.946;2023-03-12T17:00:46;2.53;;;0.82;;
49310;SDS011;35177;45.900;5.946;2023-03-12T17:03:15;1.63;;;0.60;;
49310;SDS011;35177;45.900;5.946;2023-03-12T17:05:47;1.25;;;0.60;;
49310;SDS011;35177;45.900;5.946;2023-03-12T17:08:13;2.60;;;0.90;;
49310;SDS011;35177;45.900;5.946;2023-03-12T17:10:39;0.77;;;0.63;;
49310;SDS011;35177;45.900;5.946;2023-03-12T17:13:05;3.53;;;1.17;;
49310;SDS011;35177;45.900;5.946;2023-03-12T17:15:33;2.40;;;0.70;;